createdAt,value
2018-03-18T00:01:40.997Z,93478
2018-03-18T00:04:09.086Z,93479
2018-03-18T00:06:38.689Z,93482
2018-03-18T00:09:06.862Z,93493
2018-03-18T00:11:35.038Z,93484
2018-03-18T00:14:03.934Z,93482
2018-03-18T00:16:32.006Z,93489
2018-03-18T00:19:00.086Z,93492
2018-03-18T00:21:28.272Z,93494
2018-03-18T00:23:56.329Z,93488
2018-03-18T00:26:24.412Z,93485
2018-03-18T00:28:52.482Z,93489
2018-03-18T00:31:20.585Z,93482
2018-03-18T00:33:48.657Z,93490
2018-03-18T00:36:17.508Z,93487
2018-03-18T00:38:45.624Z,93479
2018-03-18T00:41:13.798Z,93502
2018-03-18T00:43:41.869Z,93482
2018-03-18T00:46:09.940Z,93491
2018-03-18T00:48:38.129Z,93484
2018-03-18T00:51:06.306Z,93499
2018-03-18T00:53:34.396Z,93499
2018-03-18T00:56:05.114Z,93498
2018-03-18T00:58:34.302Z,93501
2018-03-18T01:01:02.383Z,93509
2018-03-18T01:03:30.450Z,93511
2018-03-18T01:05:58.518Z,93528
2018-03-18T01:08:26.638Z,93508
2018-03-18T01:10:54.655Z,93524
2018-03-18T01:13:23.478Z,93517
2018-03-18T01:15:53.329Z,93517
2018-03-18T01:18:22.174Z,93529
2018-03-18T01:20:50.281Z,93532
2018-03-18T01:23:18.346Z,93529
2018-03-18T01:25:46.438Z,93535
2018-03-18T01:28:14.605Z,93531
2018-03-18T01:30:42.677Z,93535
2018-03-18T01:33:10.771Z,93530
2018-03-18T01:35:38.840Z,93534
2018-03-18T01:38:07.022Z,93538
2018-03-18T01:40:35.097Z,93532
2018-03-18T01:43:03.282Z,93553
2018-03-18T01:45:31.354Z,93536
2018-03-18T01:47:59.434Z,93527
2018-03-18T01:50:27.530Z,93536
2018-03-18T01:53:14.310Z,93530
2018-03-18T01:55:42.389Z,93530
2018-03-18T01:58:10.454Z,93521
2018-03-18T02:00:38.612Z,93523
2018-03-18T02:03:06.728Z,93521
2018-03-18T02:05:35.430Z,93520
2018-03-18T02:08:03.502Z,93530
2018-03-18T02:10:31.578Z,93530
2018-03-18T02:12:59.650Z,93527
2018-03-18T02:15:27.718Z,93521
2018-03-18T02:17:55.793Z,93512
2018-03-18T02:20:23.858Z,93504
2018-03-18T02:22:52.382Z,93510
2018-03-18T02:25:21.245Z,93499
2018-03-18T02:27:49.322Z,93501
2018-03-18T02:30:17.378Z,93489
2018-03-18T02:32:45.449Z,93477
2018-03-18T02:35:13.518Z,93488
2018-03-18T02:37:41.595Z,93488
2018-03-18T02:40:09.664Z,93510
2018-03-18T02:42:37.790Z,93510
2018-03-18T02:45:05.881Z,93517
2018-03-18T02:47:33.970Z,93498
2018-03-18T02:50:02.054Z,93506
2018-03-18T02:52:30.887Z,93508
2018-03-18T02:54:58.951Z,93520
2018-03-18T02:57:27.372Z,93510
2018-03-18T02:59:55.449Z,93510
2018-03-18T03:02:23.522Z,93522
2018-03-18T03:04:53.205Z,93527
2018-03-18T03:07:21.306Z,93517
2018-03-18T03:09:49.373Z,93517
2018-03-18T03:12:17.461Z,93521
2018-03-18T03:14:45.542Z,93521
2018-03-18T03:17:13.614Z,93520
2018-03-18T03:19:41.790Z,93532
2018-03-18T03:22:09.861Z,93523
2018-03-18T03:24:37.931Z,93534
2018-03-18T03:27:07.418Z,93537
2018-03-18T03:29:36.466Z,93523
2018-03-18T03:32:04.538Z,93522
2018-03-18T03:34:32.603Z,93547
2018-03-18T03:37:00.677Z,93544
2018-03-18T03:39:28.746Z,93546
2018-03-18T03:41:56.933Z,93546
2018-03-18T03:44:25.673Z,93546
2018-03-18T03:46:54.631Z,93533
2018-03-18T03:49:22.798Z,93544
2018-03-18T03:51:50.874Z,93546
2018-03-18T03:54:18.967Z,93549
2018-03-18T03:56:47.054Z,93547
2018-03-18T03:59:15.110Z,93544
2018-03-18T04:01:43.187Z,93553
2018-03-18T04:04:11.266Z,93545
2018-03-18T04:06:39.342Z,93550
2018-03-18T04:09:07.514Z,93554
2018-03-18T04:11:35.706Z,93558
2018-03-18T04:14:03.762Z,93555
2018-03-18T04:16:31.844Z,93550
2018-03-18T04:18:59.922Z,93554
2018-03-18T04:21:28.002Z,93558
2018-03-18T04:23:56.083Z,93549
2018-03-18T04:26:24.145Z,93557
2018-03-18T04:28:53.259Z,93570
2018-03-18T04:31:21.330Z,93559
2018-03-18T04:33:49.440Z,93567
2018-03-18T04:36:17.598Z,93575
2018-03-18T04:38:45.678Z,93566
2018-03-18T04:41:13.850Z,93579
2018-03-18T04:43:43.435Z,93568
2018-03-18T04:46:11.659Z,93583
2018-03-18T04:48:39.750Z,93566
2018-03-18T04:51:08.714Z,93561
2018-03-18T04:53:37.719Z,93579
2018-03-18T04:56:05.782Z,93576
2018-03-18T04:58:33.881Z,93568
2018-03-18T05:01:02.040Z,93571
2018-03-18T05:03:30.109Z,93567
2018-03-18T05:05:58.182Z,93568
2018-03-18T05:08:26.361Z,93586
2018-03-18T05:10:54.537Z,93585
2018-03-18T05:13:22.722Z,93591
2018-03-18T05:15:50.786Z,93584
2018-03-18T05:18:18.857Z,93580
2018-03-18T05:20:46.930Z,93588
2018-03-18T05:23:15.015Z,93592
2018-03-18T05:25:43.082Z,93592
2018-03-18T05:28:11.166Z,93604
2018-03-18T05:30:39.254Z,93610
2018-03-18T05:33:08.837Z,93597
2018-03-18T05:35:38.030Z,93612
2018-03-18T05:38:06.099Z,93629
2018-03-18T05:40:34.163Z,93616
2018-03-18T05:43:03.042Z,93607
2018-03-18T05:45:31.101Z,93620
2018-03-18T05:47:59.278Z,93624
2018-03-18T05:50:27.349Z,93616
2018-03-18T05:52:55.431Z,93618
2018-03-18T05:55:23.490Z,93624
2018-03-18T05:57:52.290Z,93626
2018-03-18T06:00:20.358Z,93642
2018-03-18T06:02:48.434Z,93646
2018-03-18T06:05:16.512Z,93639
2018-03-18T06:07:44.583Z,93671
2018-03-18T06:10:12.650Z,93653
2018-03-18T06:12:41.248Z,93672
2018-03-18T06:15:09.330Z,93660
2018-03-18T06:17:38.634Z,93664
2018-03-18T06:20:06.702Z,93666
2018-03-18T06:22:34.794Z,93665
2018-03-18T06:25:02.882Z,93675
2018-03-18T06:27:30.943Z,93677
2018-03-18T06:29:59.002Z,93686
2018-03-18T06:32:27.106Z,93686
2018-03-18T06:34:55.990Z,93674
2018-03-18T06:37:24.061Z,93679
2018-03-18T06:39:52.286Z,93687
2018-03-18T06:42:21.134Z,93681
2018-03-18T06:44:49.326Z,93697
2018-03-18T06:47:17.409Z,93703
2018-03-18T06:49:45.481Z,93693
2018-03-18T06:52:13.653Z,93714
2018-03-18T06:54:41.720Z,93707
2018-03-18T06:57:09.798Z,93718
2018-03-18T06:59:37.886Z,93730
2018-03-18T07:02:06.055Z,93736
2018-03-18T07:04:34.126Z,93750
2018-03-18T07:07:02.199Z,93747
2018-03-18T07:09:30.277Z,93741
2018-03-18T07:11:58.341Z,93738
2018-03-18T07:14:26.439Z,93757
2018-03-18T07:16:54.500Z,93769
2018-03-18T07:19:22.590Z,93755
2018-03-18T07:21:50.671Z,93752
2018-03-18T07:24:18.938Z,93768
2018-03-18T07:26:46.918Z,93774
2018-03-18T07:29:14.993Z,93785
2018-03-18T07:31:43.074Z,93773
2018-03-18T07:34:11.160Z,93769
2018-03-18T07:36:40.462Z,93789
2018-03-18T07:39:08.538Z,93778
2018-03-18T07:41:36.630Z,93785
2018-03-18T07:44:04.701Z,93789
2018-03-18T07:46:32.871Z,93797
2018-03-18T07:49:00.942Z,93789
2018-03-18T07:51:29.010Z,93791
2018-03-18T07:53:57.095Z,93797
2018-03-18T07:56:25.270Z,93800
2018-03-18T07:58:53.442Z,93796
2018-03-18T08:01:21.513Z,93790
2018-03-18T08:03:49.587Z,93813
2018-03-18T08:06:17.670Z,93810
2018-03-18T08:08:45.854Z,93816
2018-03-18T08:11:13.948Z,93807
2018-03-18T08:13:42.121Z,93822
2018-03-18T08:16:11.511Z,93817
2018-03-18T08:18:40.716Z,93813
2018-03-18T08:21:08.810Z,93820
2018-03-18T08:23:36.978Z,93815
2018-03-18T08:26:05.049Z,93815
2018-03-18T08:28:33.152Z,93831
2018-03-18T08:31:01.209Z,93822
2018-03-18T08:33:29.286Z,93831
2018-03-18T08:35:57.371Z,93820
2018-03-18T08:38:25.422Z,93824
2018-03-18T08:40:53.498Z,93826
2018-03-18T08:43:21.570Z,93831
2018-03-18T08:45:49.641Z,93820
2018-03-18T08:48:17.706Z,93828
2018-03-18T08:50:45.782Z,93828
2018-03-18T08:53:14.651Z,93837
2018-03-18T08:55:43.505Z,93824
2018-03-18T08:58:11.678Z,93839
2018-03-18T09:00:39.742Z,93849
2018-03-18T09:03:07.830Z,93842
2018-03-18T09:05:35.899Z,93849
2018-03-18T09:08:03.974Z,93842
2018-03-18T09:10:32.062Z,93836
2018-03-18T09:13:00.126Z,93846
2018-03-18T09:15:28.316Z,93838
2018-03-18T09:17:56.396Z,93860
2018-03-18T09:20:24.571Z,93849
2018-03-18T09:22:52.638Z,93851
2018-03-18T09:25:20.736Z,93851
2018-03-18T09:27:48.793Z,93844
2018-03-18T09:30:16.980Z,93847
2018-03-18T09:32:45.062Z,93851
2018-03-18T09:35:13.140Z,93862
2018-03-18T09:37:41.741Z,93875
2018-03-18T09:40:09.810Z,93859
2018-03-18T09:42:38.198Z,93869
2018-03-18T09:45:06.275Z,93863
2018-03-18T09:47:34.337Z,93862
2018-03-18T09:50:02.510Z,93869
2018-03-18T09:52:30.570Z,93874
2018-03-18T09:54:58.659Z,93889
2018-03-18T09:57:26.842Z,93877
2018-03-18T09:59:54.914Z,93883
2018-03-18T10:02:22.990Z,93884
2018-03-18T10:04:52.949Z,93872
2018-03-18T10:07:21.977Z,93892
2018-03-18T10:09:50.090Z,93887
2018-03-18T10:12:18.271Z,93879
2018-03-18T10:14:46.346Z,93873
2018-03-18T10:17:14.422Z,93875
2018-03-18T10:19:42.491Z,93872
2018-03-18T10:22:10.558Z,93879
2018-03-18T10:24:38.770Z,93891
2018-03-18T10:27:08.346Z,93894
2018-03-18T10:29:36.406Z,93900
2018-03-18T10:32:04.525Z,93900
2018-03-18T10:34:32.592Z,93901
2018-03-18T10:37:00.770Z,93891
2018-03-18T10:39:28.830Z,93889
2018-03-18T10:41:56.966Z,93891
2018-03-18T10:44:24.968Z,93873
2018-03-18T10:46:53.045Z,93886
2018-03-18T10:49:21.228Z,93891
2018-03-18T10:51:50.051Z,93892
2018-03-18T10:54:18.126Z,93891
2018-03-18T10:56:46.321Z,93896
2018-03-18T10:59:15.237Z,93893
2018-03-18T11:01:49.276Z,93893
2018-03-18T11:04:18.212Z,93904
2018-03-18T11:06:46.357Z,93903
2018-03-18T11:09:14.437Z,93899
2018-03-18T11:11:43.762Z,93891
2018-03-18T11:14:12.975Z,93896
2018-03-18T11:16:41.145Z,93878
2018-03-18T11:19:09.235Z,93899
2018-03-18T11:21:37.366Z,93891
2018-03-18T11:24:05.470Z,93905
2018-03-18T11:26:33.555Z,93902
2018-03-18T11:29:01.705Z,93891
2018-03-18T11:31:29.805Z,93901
2018-03-18T11:33:57.926Z,93901
2018-03-18T11:36:26.841Z,93909
2018-03-18T11:38:55.428Z,93901
2018-03-18T11:41:23.557Z,93904
2018-03-18T11:43:52.461Z,93911
2018-03-18T11:46:20.688Z,93899
2018-03-18T11:48:48.799Z,93896
2018-03-18T11:51:16.990Z,93907
2018-03-18T11:53:45.041Z,93899
2018-03-18T11:56:13.671Z,93891
2018-03-18T11:58:41.898Z,93896
2018-03-18T12:01:09.967Z,93887
2018-03-18T12:03:38.022Z,93894
2018-03-18T12:06:06.946Z,93893
2018-03-18T12:08:52.860Z,93880
2018-03-18T12:11:20.985Z,93891
2018-03-18T12:13:49.118Z,93889
2018-03-18T12:16:17.204Z,93886
2018-03-18T12:18:46.318Z,93887
2018-03-18T12:21:15.194Z,93886
2018-03-18T12:23:44.039Z,93898
2018-03-18T12:26:12.165Z,93887
2018-03-18T12:28:40.220Z,93895
2018-03-18T12:31:08.411Z,93891
2018-03-18T12:33:36.504Z,93894
2018-03-18T12:36:04.658Z,93883
2018-03-18T12:38:32.734Z,93887
2018-03-18T12:41:00.798Z,93901
2018-03-18T12:43:29.807Z,93881
2018-03-18T12:45:57.884Z,93919
2018-03-18T12:48:26.063Z,93901
2018-03-18T12:50:54.141Z,93905
2018-03-18T12:53:22.214Z,93907
2018-03-18T12:55:50.589Z,93906
2018-03-18T12:58:18.648Z,93907
2018-03-18T13:00:46.693Z,93903
2018-03-18T13:03:15.533Z,93897
2018-03-18T13:05:44.756Z,93890
2018-03-18T13:08:12.930Z,93887
2018-03-18T13:10:41.202Z,93898
2018-03-18T13:13:09.268Z,93905
2018-03-18T13:15:37.323Z,93923
2018-03-18T13:18:05.421Z,93909
2018-03-18T13:20:33.485Z,93914
2018-03-18T13:23:01.586Z,93919
2018-03-18T13:25:29.758Z,93910
2018-03-18T13:27:57.838Z,93908
2018-03-18T13:30:25.988Z,93921
2018-03-18T13:32:54.186Z,93919
2018-03-18T13:35:22.294Z,93927
2018-03-18T13:37:50.598Z,93934
2018-03-18T13:40:19.463Z,93927
2018-03-18T13:42:47.634Z,93929
2018-03-18T13:45:15.755Z,93947
2018-03-18T13:47:45.770Z,93933
2018-03-18T13:50:15.783Z,93929
2018-03-18T13:52:45.755Z,93945
2018-03-18T13:55:13.822Z,93944
2018-03-18T13:57:42.082Z,93953
2018-03-18T14:00:10.260Z,93960
2018-03-18T14:02:38.282Z,93954
2018-03-18T14:05:06.391Z,93965
2018-03-18T14:07:35.234Z,93966
2018-03-18T14:10:03.304Z,93965
2018-03-18T14:12:31.410Z,93959
2018-03-18T14:14:59.465Z,93971
2018-03-18T14:17:27.756Z,93980
2018-03-18T14:19:55.846Z,93980
2018-03-18T14:22:23.918Z,93983
2018-03-18T14:24:53.091Z,93962
2018-03-18T14:27:21.185Z,93974
2018-03-18T14:29:49.739Z,93971
2018-03-18T14:32:17.828Z,93974
2018-03-18T14:34:47.050Z,93975
2018-03-18T14:37:17.091Z,93969
2018-03-18T14:39:46.273Z,93959
2018-03-18T14:42:14.345Z,93963
2018-03-18T14:44:42.664Z,93971
2018-03-18T14:47:10.769Z,93963
2018-03-18T14:49:38.895Z,93969
2018-03-18T14:52:07.143Z,93984
2018-03-18T14:54:35.223Z,93976
2018-03-18T14:57:03.419Z,93985
2018-03-18T14:59:31.486Z,93979
2018-03-18T15:01:59.562Z,93974
2018-03-18T15:04:27.747Z,93973
2018-03-18T15:06:55.822Z,93987
2018-03-18T15:09:23.910Z,94001
2018-03-18T15:11:52.474Z,93970
2018-03-18T15:14:20.535Z,93992
2018-03-18T15:16:48.658Z,93989
2018-03-18T15:19:17.727Z,93993
2018-03-18T15:21:47.812Z,94000
2018-03-18T15:24:17.769Z,93993
2018-03-18T15:26:47.827Z,94006
2018-03-18T15:29:15.977Z,94008
2018-03-18T15:31:44.163Z,94008
2018-03-18T15:34:12.249Z,94003
2018-03-18T15:36:40.438Z,94011
2018-03-18T15:39:08.623Z,94015
2018-03-18T15:41:36.836Z,94012
2018-03-18T15:44:04.970Z,94021
2018-03-18T15:46:33.141Z,94007
2018-03-18T15:49:01.322Z,94028
2018-03-18T15:51:29.737Z,94034
2018-03-18T15:53:57.846Z,94033
2018-03-18T15:56:25.958Z,94022
2018-03-18T15:58:54.207Z,94019
2018-03-18T16:01:22.307Z,94039
2018-03-18T16:03:50.398Z,94050
2018-03-18T16:06:18.525Z,94029
2018-03-18T16:08:48.502Z,94049
2018-03-18T16:11:18.526Z,94044
2018-03-18T16:13:47.743Z,94063
2018-03-18T16:16:15.840Z,94054
2018-03-18T16:18:44.669Z,94047
2018-03-18T16:21:13.702Z,94056
2018-03-18T16:23:41.826Z,94063
2018-03-18T16:26:09.894Z,94066
2018-03-18T16:28:38.010Z,94076
2018-03-18T16:31:12.749Z,94067
2018-03-18T16:33:40.834Z,94086
2018-03-18T16:36:09.083Z,94063
2018-03-18T16:38:37.174Z,94083
2018-03-18T16:41:05.289Z,94077
2018-03-18T16:43:34.691Z,94080
2018-03-18T16:46:03.553Z,94076
2018-03-18T16:48:31.698Z,94077
2018-03-18T16:50:59.869Z,94090
2018-03-18T16:53:27.950Z,94098
2018-03-18T16:55:56.238Z,94095
2018-03-18T16:58:24.329Z,94108
2018-03-18T17:00:53.673Z,94102
2018-03-18T17:03:22.527Z,94110
2018-03-18T17:05:50.590Z,94108
2018-03-18T17:08:18.844Z,94106
2018-03-18T17:10:48.866Z,94110
2018-03-18T17:13:18.831Z,94114
2018-03-18T17:15:47.151Z,94107
2018-03-18T17:18:16.082Z,94111
2018-03-18T17:20:44.194Z,94127
2018-03-18T17:23:12.282Z,94125
2018-03-18T17:25:40.458Z,94126
2018-03-18T17:28:08.565Z,94130
2018-03-18T17:30:37.422Z,94135
2018-03-18T17:33:05.520Z,94144
2018-03-18T17:35:34.382Z,94141
2018-03-18T17:38:02.549Z,94154
2018-03-18T17:40:31.418Z,94147
2018-03-18T17:43:00.298Z,94170
2018-03-18T17:49:02.613Z,94166
2018-03-18T17:51:48.607Z,94156
2018-03-18T17:54:34.915Z,94192
2018-03-18T17:57:03.117Z,94192
2018-03-18T17:59:31.999Z,94182
2018-03-18T18:02:00.087Z,94181
2018-03-18T18:04:28.942Z,94189
2018-03-18T18:06:57.120Z,94198
2018-03-18T18:09:25.206Z,94190
2018-03-18T18:11:53.269Z,94190
2018-03-18T18:14:21.388Z,94196
2018-03-18T18:16:49.977Z,94192
2018-03-18T18:19:20.058Z,94193
2018-03-18T18:21:48.464Z,94196
2018-03-18T18:24:16.526Z,94195
2018-03-18T18:26:44.703Z,94183
2018-03-18T18:29:13.110Z,94206
2018-03-18T18:31:41.173Z,94195
2018-03-18T18:34:09.298Z,94201
2018-03-18T18:36:37.436Z,94213
2018-03-18T18:39:05.594Z,94211
2018-03-18T18:41:33.791Z,94211
2018-03-18T18:44:01.853Z,94201
2018-03-18T18:46:29.926Z,94211
2018-03-18T18:48:58.145Z,94207
2018-03-18T18:51:27.006Z,94219
2018-03-18T18:53:55.064Z,94214
2018-03-18T18:56:23.427Z,94225
2018-03-18T18:58:52.434Z,94204
2018-03-18T19:01:20.551Z,94215
2018-03-18T19:03:48.669Z,94215
2018-03-18T19:06:16.788Z,94227
2018-03-18T19:08:44.870Z,94218
2018-03-18T19:11:13.158Z,94213
2018-03-18T19:13:41.591Z,94223
2018-03-18T19:16:09.674Z,94225
2018-03-18T19:18:37.987Z,94230
2018-03-18T19:21:06.053Z,94235
2018-03-18T19:23:34.119Z,94242
2018-03-18T19:26:02.483Z,94234
2018-03-18T19:28:30.546Z,94226
2018-03-18T19:30:59.536Z,94233
2018-03-18T19:33:28.504Z,94244
2018-03-18T19:35:56.613Z,94234
2018-03-18T19:38:24.691Z,94223
2018-03-18T19:40:53.535Z,94224
2018-03-18T19:43:21.867Z,94232
2018-03-18T19:45:52.009Z,94233
2018-03-18T19:48:21.216Z,94234
2018-03-18T19:50:49.418Z,94241
2018-03-18T19:53:17.482Z,94246
2018-03-18T19:55:45.543Z,94244
2018-03-18T19:58:13.733Z,94251
2018-03-18T20:00:41.826Z,94245
2018-03-18T20:03:09.931Z,94252
2018-03-18T20:05:38.091Z,94248
2018-03-18T20:08:06.263Z,94254
2018-03-18T20:10:34.344Z,94243
2018-03-18T20:13:02.410Z,94259
2018-03-18T20:15:30.650Z,94251
2018-03-18T20:17:59.513Z,94259
2018-03-18T20:20:27.580Z,94267
2018-03-18T20:22:55.646Z,94259
2018-03-18T20:25:23.822Z,94253
2018-03-18T20:27:53.926Z,94250
2018-03-18T20:30:22.937Z,94266
2018-03-18T20:32:52.928Z,94251
2018-03-18T20:35:22.874Z,94248
2018-03-18T20:37:52.938Z,94261
2018-03-18T20:40:22.947Z,94268
2018-03-18T20:42:52.890Z,94272
2018-03-18T20:45:22.865Z,94266
2018-03-18T20:47:51.042Z,94268
2018-03-18T20:50:19.110Z,94274
2018-03-18T20:52:48.110Z,94262
2018-03-18T20:55:16.194Z,94274
2018-03-18T20:57:44.447Z,94276
2018-03-18T21:00:12.518Z,94282
2018-03-18T21:02:40.591Z,94273
2018-03-18T21:05:08.662Z,94275
2018-03-18T21:07:36.735Z,94272
2018-03-18T21:10:04.846Z,94275
2018-03-18T21:12:32.925Z,94278
2018-03-18T21:15:00.995Z,94282
2018-03-18T21:17:29.050Z,94278
2018-03-18T21:19:57.166Z,94282
2018-03-18T21:22:25.218Z,94278
2018-03-18T21:24:53.862Z,94285
2018-03-18T21:27:23.650Z,94283
2018-03-18T21:29:54.248Z,94271
2018-03-18T21:32:23.699Z,94288
2018-03-18T21:34:53.622Z,94278
2018-03-18T21:37:22.826Z,94287
2018-03-18T21:39:50.919Z,94288
2018-03-18T21:42:19.780Z,94286
2018-03-18T21:44:47.869Z,94271
2018-03-18T21:47:16.030Z,94284
2018-03-18T21:49:44.478Z,94273
2018-03-18T21:52:12.716Z,94277
2018-03-18T21:54:40.934Z,94275
2018-03-18T21:57:09.047Z,94291
2018-03-18T21:59:37.115Z,94281
2018-03-18T22:02:05.190Z,94281
2018-03-18T22:04:33.270Z,94274
2018-03-18T22:07:01.351Z,94286
2018-03-18T22:09:29.413Z,94299
2018-03-18T22:11:57.498Z,94286
2018-03-18T22:14:25.582Z,94290
2018-03-18T22:16:54.312Z,94289
2018-03-18T22:19:24.090Z,94282
2018-03-18T22:21:52.297Z,94288
2018-03-18T22:24:20.364Z,94260
2018-03-18T22:26:48.438Z,94285
2018-03-18T22:29:17.268Z,94287
2018-03-18T22:31:45.348Z,94302
2018-03-18T22:34:13.402Z,94294
2018-03-18T22:36:42.266Z,94292
2018-03-18T22:39:10.342Z,94296
2018-03-18T22:41:38.422Z,94289
2018-03-18T22:44:06.477Z,94272
2018-03-18T22:46:34.550Z,94286
2018-03-18T22:49:03.378Z,94290
2018-03-18T22:51:33.074Z,94301
2018-03-18T22:54:01.134Z,94311
2018-03-18T22:56:29.206Z,94289
2018-03-18T22:58:57.270Z,94290
2018-03-18T23:01:25.387Z,94292
2018-03-18T23:03:53.675Z,94290
2018-03-18T23:06:21.763Z,94293
2018-03-18T23:08:49.818Z,94284
2018-03-18T23:11:17.894Z,94285
2018-03-18T23:13:46.062Z,94298
2018-03-18T23:16:14.246Z,94310
2018-03-18T23:18:42.309Z,94299
2018-03-18T23:21:10.413Z,94305
2018-03-18T23:23:38.622Z,94294
2018-03-18T23:26:07.537Z,94284
2018-03-18T23:28:35.646Z,94294
2018-03-18T23:31:03.826Z,94303
2018-03-18T23:33:31.891Z,94299
2018-03-18T23:35:59.979Z,94298
2018-03-18T23:38:28.055Z,94296
2018-03-18T23:40:56.127Z,94294
2018-03-18T23:43:24.206Z,94285
2018-03-18T23:45:54.332Z,94299
2018-03-18T23:48:22.388Z,94292
2018-03-18T23:50:50.464Z,94292
2018-03-18T23:53:18.551Z,94291
2018-03-18T23:55:46.645Z,94289
2018-03-18T23:58:14.710Z,94287
